sensor_id;sensor_type;location;lat;lon;timestamp;pressure;altitude;pressure_sealevel;temperature;humidity
76547;BME280;65390;53.014;8.886;2022-12-07T00:02:04;101273.91;;;3.92;100.00
76547;BME280;65390;53.014;8.886;2022-12-07T00:04:29;101283.41;;;4.00;100.00
76547;BME280;65390;53.014;8.886;2022-12-07T00:06:55;101283.16;;;4.07;100.00
76547;BME280;65390;53.014;8.886;2022-12-07T00:09:22;101308.28;;;4.23;100.00
76547;BME280;65390;53.014;8.886;2022-12-07T00:11:49;101285.16;;;4.01;100.00
76547;BME280;65390;53.014;8.886;2022-12-07T00:14:16;101297.44;;;4.03;100.00
76547;BME280;65390;53.014;8.886;2022-12-07T00:16:42;101284.44;;;3.94;100.00
76547;BME280;65390;53.014;8.886;2022-12-07T00:19:09;101276.78;;;3.85;100.00
76547;BME280;65390;53.014;8.886;2022-12-07T00:21:35;101273.41;;;3.50;100.00
76547;BME280;65390;53.014;8.886;2022-12-07T00:24:02;101291.47;;;3.67;100.00
76547;BME280;65390;53.014;8.886;2022-12-07T00:26:31;101283.56;;;3.66;100.00
76547;BME280;65390;53.014;8.886;2022-12-07T00:28:59;101287.75;;;3.73;100.00
76547;BME280;65390;53.014;8.886;2022-12-07T00:31:33;101275.53;;;3.69;100.00
76547;BME280;65390;53.014;8.886;2022-12-07T00:34:00;101274.72;;;3.67;100.00
76547;BME280;65390;53.014;8.886;2022-12-07T00:36:26;101271.50;;;3.55;100.00
76547;BME280;65390;53.014;8.886;2022-12-07T00:38:51;101286.44;;;3.58;100.00
76547;BME280;65390;53.014;8.886;2022-12-07T00:41:20;101279.34;;;3.60;100.00
76547;BME280;65390;53.014;8.886;2022-12-07T00:43:47;101274.91;;;3.59;100.00
76547;BME280;65390;53.014;8.886;2022-12-07T00:46:16;101274.59;;;3.40;100.00
76547;BME280;65390;53.014;8.886;2022-12-07T00:48:41;101290.09;;;3.54;100.00
76547;BME280;65390;53.014;8.886;2022-12-07T00:51:07;101279.81;;;3.43;100.00
76547;BME280;65390;53.014;8.886;2022-12-07T00:53:37;101300.63;;;3.55;100.00
76547;BME280;65390;53.014;8.886;2022-12-07T00:56:17;101298.28;;;3.46;100.00
76547;BME280;65390;53.014;8.886;2022-12-07T00:58:43;101302.31;;;3.58;100.00
76547;BME280;65390;53.014;8.886;2022-12-07T01:01:09;101279.88;;;3.40;100.00
76547;BME280;65390;53.014;8.886;2022-12-07T01:03:35;101286.75;;;3.47;100.00
76547;BME280;65390;53.014;8.886;2022-12-07T01:06:00;101283.97;;;3.52;100.00
76547;BME280;65390;53.014;8.886;2022-12-07T01:08:27;101291.44;;;3.69;100.00
76547;BME280;65390;53.014;8.886;2022-12-07T01:11:05;101271.41;;;3.58;100.00
76547;BME280;65390;53.014;8.886;2022-12-07T01:13:32;101279.59;;;3.51;100.00
76547;BME280;65390;53.014;8.886;2022-12-07T01:16:00;101267.50;;;3.42;100.00
76547;BME280;65390;53.014;8.886;2022-12-07T01:18:27;101274.38;;;3.48;100.00
76547;BME280;65390;53.014;8.886;2022-12-07T01:21:13;101263.88;;;3.45;100.00
76547;BME280;65390;53.014;8.886;2022-12-07T01:23:39;101265.66;;;3.44;100.00
76547;BME280;65390;53.014;8.886;2022-12-07T01:26:07;101255.47;;;3.30;100.00
76547;BME280;65390;53.014;8.886;2022-12-07T01:28:33;101272.75;;;3.44;100.00
76547;BME280;65390;53.014;8.886;2022-12-07T01:31:04;101283.25;;;3.47;100.00
76547;BME280;65390;53.014;8.886;2022-12-07T01:33:33;101265.47;;;3.50;100.00
76547;BME280;65390;53.014;8.886;2022-12-07T01:36:07;101262.72;;;3.53;100.00
76547;BME280;65390;53.014;8.886;2022-12-07T01:38:33;101288.53;;;3.76;100.00
76547;BME280;65390;53.014;8.886;2022-12-07T01:41:00;101278.06;;;3.72;100.00
76547;BME280;65390;53.014;8.886;2022-12-07T01:43:28;101258.03;;;3.63;100.00
76547;BME280;65390;53.014;8.886;2022-12-07T01:45:54;101270.13;;;3.72;100.00
76547;BME280;65390;53.014;8.886;2022-12-07T01:48:27;101277.44;;;3.63;100.00
76547;BME280;65390;53.014;8.886;2022-12-07T01:50:55;101270.56;;;3.56;100.00
76547;BME280;65390;53.014;8.886;2022-12-07T01:53:24;101287.03;;;3.68;100.00
76547;BME280;65390;53.014;8.886;2022-12-07T01:55:52;101254.09;;;3.47;100.00
76547;BME280;65390;53.014;8.886;2022-12-07T01:58:18;101255.59;;;3.55;100.00
76547;BME280;65390;53.014;8.886;2022-12-07T02:00:44;101249.44;;;3.55;100.00
76547;BME280;65390;53.014;8.886;2022-12-07T02:03:27;101260.53;;;3.68;100.00
76547;BME280;65390;53.014;8.886;2022-12-07T02:05:55;101270.91;;;3.75;100.00
76547;BME280;65390;53.014;8.886;2022-12-07T02:08:22;101266.03;;;3.61;100.00
76547;BME280;65390;53.014;8.886;2022-12-07T02:10:47;101241.56;;;3.52;100.00
76547;BME280;65390;53.014;8.886;2022-12-07T02:13:16;101255.38;;;3.63;100.00
76547;BME280;65390;53.014;8.886;2022-12-07T02:16:27;101281.50;;;3.75;100.00
76547;BME280;65390;53.014;8.886;2022-12-07T02:21:45;101269.41;;;3.67;100.00
76547;BME280;65390;53.014;8.886;2022-12-07T02:29:25;101283.91;;;3.53;100.00
76547;BME280;65390;53.014;8.886;2022-12-07T02:32:03;101246.50;;;3.34;100.00
76547;BME280;65390;53.014;8.886;2022-12-07T02:37:12;101250.09;;;3.32;100.00
76547;BME280;65390;53.014;8.886;2022-12-07T02:39:51;101269.53;;;3.32;100.00
76547;BME280;65390;53.014;8.886;2022-12-07T02:42:27;101226.06;;;3.09;100.00
76547;BME280;65390;53.014;8.886;2022-12-07T02:44:55;101262.34;;;3.05;100.00
76547;BME280;65390;53.014;8.886;2022-12-07T02:47:22;101238.53;;;2.72;100.00
76547;BME280;65390;53.014;8.886;2022-12-07T02:49:50;101229.88;;;2.66;100.00
76547;BME280;65390;53.014;8.886;2022-12-07T02:52:16;101232.97;;;2.82;100.00
76547;BME280;65390;53.014;8.886;2022-12-07T02:54:41;101260.50;;;3.09;100.00
76547;BME280;65390;53.014;8.886;2022-12-07T02:57:36;101264.31;;;3.29;100.00
76547;BME280;65390;53.014;8.886;2022-12-07T03:00:15;101224.19;;;3.12;100.00
76547;BME280;65390;53.014;8.886;2022-12-07T03:11:08;101273.59;;;3.44;100.00
76547;BME280;65390;53.014;8.886;2022-12-07T03:13:52;101245.06;;;3.24;100.00
76547;BME280;65390;53.014;8.886;2022-12-07T03:16:27;101278.19;;;3.38;100.00
76547;BME280;65390;53.014;8.886;2022-12-07T03:19:09;101256.56;;;3.23;100.00
76547;BME280;65390;53.014;8.886;2022-12-07T03:21:39;101260.09;;;3.22;100.00
76547;BME280;65390;53.014;8.886;2022-12-07T03:24:18;101257.28;;;3.28;100.00
76547;BME280;65390;53.014;8.886;2022-12-07T03:27:01;101226.81;;;3.14;100.00
76547;BME280;65390;53.014;8.886;2022-12-07T03:29:34;101244.75;;;3.33;100.00
76547;BME280;65390;53.014;8.886;2022-12-07T03:32:06;101229.53;;;3.40;100.00
76547;BME280;65390;53.014;8.886;2022-12-07T03:34:38;101227.59;;;3.47;100.00
76547;BME280;65390;53.014;8.886;2022-12-07T03:37:14;101200.03;;;3.23;100.00
76547;BME280;65390;53.014;8.886;2022-12-07T03:39:48;101242.28;;;3.57;100.00
76547;BME280;65390;53.014;8.886;2022-12-07T03:42:15;101236.38;;;3.49;100.00
76547;BME280;65390;53.014;8.886;2022-12-07T03:44:41;101239.59;;;3.60;100.00
76547;BME280;65390;53.014;8.886;2022-12-07T03:47:27;101242.84;;;3.68;100.00
76547;BME280;65390;53.014;8.886;2022-12-07T03:50:08;101225.47;;;3.59;100.00
76547;BME280;65390;53.014;8.886;2022-12-07T03:52:40;101231.63;;;3.60;100.00
76547;BME280;65390;53.014;8.886;2022-12-07T03:55:27;101265.53;;;3.77;100.00
76547;BME280;65390;53.014;8.886;2022-12-07T03:57:56;101231.84;;;3.52;100.00
76547;BME280;65390;53.014;8.886;2022-12-07T04:00:23;101232.50;;;3.60;100.00
76547;BME280;65390;53.014;8.886;2022-12-07T04:02:52;101277.50;;;3.90;100.00
76547;BME280;65390;53.014;8.886;2022-12-07T04:05:18;101278.25;;;3.95;100.00
76547;BME280;65390;53.014;8.886;2022-12-07T04:07:43;101247.78;;;3.80;100.00
76547;BME280;65390;53.014;8.886;2022-12-07T04:10:12;101247.00;;;3.77;100.00
76547;BME280;65390;53.014;8.886;2022-12-07T04:12:40;101281.78;;;3.96;100.00
76547;BME280;65390;53.014;8.886;2022-12-07T04:15:16;101259.00;;;3.88;100.00
76547;BME280;65390;53.014;8.886;2022-12-07T04:17:46;101263.84;;;3.74;100.00
76547;BME280;65390;53.014;8.886;2022-12-07T04:20:22;101213.16;;;3.27;100.00
76547;BME280;65390;53.014;8.886;2022-12-07T04:22:55;101244.56;;;3.40;100.00
76547;BME280;65390;53.014;8.886;2022-12-07T04:25:20;101239.22;;;3.43;100.00
76547;BME280;65390;53.014;8.886;2022-12-07T04:27:48;101196.00;;;3.11;100.00
76547;BME280;65390;53.014;8.886;2022-12-07T04:30:14;101251.44;;;3.47;100.00
76547;BME280;65390;53.014;8.886;2022-12-07T04:32:47;101222.44;;;3.42;100.00
76547;BME280;65390;53.014;8.886;2022-12-07T04:35:12;101233.97;;;3.40;100.00
76547;BME280;65390;53.014;8.886;2022-12-07T04:37:40;101241.00;;;3.42;100.00
76547;BME280;65390;53.014;8.886;2022-12-07T04:40:08;101223.72;;;3.29;100.00
76547;BME280;65390;53.014;8.886;2022-12-07T04:42:36;101247.88;;;3.48;100.00
76547;BME280;65390;53.014;8.886;2022-12-07T04:45:01;101223.06;;;3.50;100.00
76547;BME280;65390;53.014;8.886;2022-12-07T04:47:27;101259.78;;;3.64;100.00
76547;BME280;65390;53.014;8.886;2022-12-07T04:49:53;101228.53;;;3.46;100.00
76547;BME280;65390;53.014;8.886;2022-12-07T04:52:18;101210.63;;;3.24;100.00
76547;BME280;65390;53.014;8.886;2022-12-07T04:54:44;101213.03;;;3.32;100.00
76547;BME280;65390;53.014;8.886;2022-12-07T04:57:10;101244.28;;;3.50;100.00
76547;BME280;65390;53.014;8.886;2022-12-07T04:59:35;101230.25;;;3.47;100.00
76547;BME280;65390;53.014;8.886;2022-12-07T05:02:01;101243.44;;;3.48;100.00
76547;BME280;65390;53.014;8.886;2022-12-07T05:04:26;101226.88;;;3.42;100.00
76547;BME280;65390;53.014;8.886;2022-12-07T05:06:51;101213.66;;;3.40;100.00
76547;BME280;65390;53.014;8.886;2022-12-07T05:09:20;101200.47;;;3.39;100.00
76547;BME280;65390;53.014;8.886;2022-12-07T05:11:53;101238.97;;;3.50;100.00
76547;BME280;65390;53.014;8.886;2022-12-07T05:14:20;101245.84;;;3.56;100.00
76547;BME280;65390;53.014;8.886;2022-12-07T05:16:48;101252.16;;;3.52;100.00
76547;BME280;65390;53.014;8.886;2022-12-07T05:19:14;101258.69;;;3.42;100.00
76547;BME280;65390;53.014;8.886;2022-12-07T05:21:43;101203.09;;;3.09;100.00
76547;BME280;65390;53.014;8.886;2022-12-07T05:24:10;101216.78;;;3.25;100.00
76547;BME280;65390;53.014;8.886;2022-12-07T05:26:44;101240.09;;;3.43;100.00
76547;BME280;65390;53.014;8.886;2022-12-07T05:29:14;101239.28;;;3.40;100.00
76547;BME280;65390;53.014;8.886;2022-12-07T05:31:39;101232.66;;;3.25;100.00
76547;BME280;65390;53.014;8.886;2022-12-07T05:34:08;101237.81;;;3.29;100.00
76547;BME280;65390;53.014;8.886;2022-12-07T05:36:34;101257.16;;;3.33;100.00
76547;BME280;65390;53.014;8.886;2022-12-07T05:39:03;101224.09;;;3.15;100.00
76547;BME280;65390;53.014;8.886;2022-12-07T05:41:28;101223.91;;;3.21;100.00
76547;BME280;65390;53.014;8.886;2022-12-07T05:44:12;101201.84;;;2.91;100.00
76547;BME280;65390;53.014;8.886;2022-12-07T05:46:55;101207.69;;;3.02;100.00
76547;BME280;65390;53.014;8.886;2022-12-07T05:49:23;101224.41;;;3.04;100.00
76547;BME280;65390;53.014;8.886;2022-12-07T05:51:51;101183.59;;;2.81;100.00
76547;BME280;65390;53.014;8.886;2022-12-07T05:54:16;101190.94;;;3.02;100.00
76547;BME280;65390;53.014;8.886;2022-12-07T05:56:44;101235.09;;;3.32;100.00
76547;BME280;65390;53.014;8.886;2022-12-07T05:59:12;101234.16;;;3.33;100.00
76547;BME280;65390;53.014;8.886;2022-12-07T06:02:07;101211.97;;;3.08;100.00
76547;BME280;65390;53.014;8.886;2022-12-07T06:04:39;101187.66;;;2.94;100.00
76547;BME280;65390;53.014;8.886;2022-12-07T06:07:07;101211.09;;;3.08;100.00
76547;BME280;65390;53.014;8.886;2022-12-07T06:09:34;101208.25;;;3.14;100.00
76547;BME280;65390;53.014;8.886;2022-12-07T06:12:02;101213.59;;;3.12;100.00
76547;BME280;65390;53.014;8.886;2022-12-07T06:14:48;101206.78;;;3.03;100.00
76547;BME280;65390;53.014;8.886;2022-12-07T06:17:15;101257.88;;;3.38;100.00
76547;BME280;65390;53.014;8.886;2022-12-07T06:19:41;101249.72;;;3.15;100.00
76547;BME280;65390;53.014;8.886;2022-12-07T06:22:08;101213.78;;;3.06;100.00
76547;BME280;65390;53.014;8.886;2022-12-07T06:24:38;101197.06;;;3.04;100.00
76547;BME280;65390;53.014;8.886;2022-12-07T06:27:05;101250.72;;;3.42;100.00
76547;BME280;65390;53.014;8.886;2022-12-07T06:29:32;101259.75;;;3.34;100.00
76547;BME280;65390;53.014;8.886;2022-12-07T06:32:02;101252.75;;;3.32;100.00
76547;BME280;65390;53.014;8.886;2022-12-07T06:34:29;101278.88;;;3.46;100.00
76547;BME280;65390;53.014;8.886;2022-12-07T06:36:56;101255.22;;;3.38;100.00
76547;BME280;65390;53.014;8.886;2022-12-07T06:39:24;101286.56;;;3.53;100.00
76547;BME280;65390;53.014;8.886;2022-12-07T06:41:51;101252.66;;;3.35;100.00
76547;BME280;65390;53.014;8.886;2022-12-07T06:44:18;101236.78;;;3.35;100.00
76547;BME280;65390;53.014;8.886;2022-12-07T06:46:49;101226.38;;;3.29;100.00
76547;BME280;65390;53.014;8.886;2022-12-07T06:49:18;101269.41;;;3.67;100.00
76547;BME280;65390;53.014;8.886;2022-12-07T06:51:45;101270.38;;;3.64;100.00
76547;BME280;65390;53.014;8.886;2022-12-07T06:54:12;101236.19;;;3.55;100.00
76547;BME280;65390;53.014;8.886;2022-12-07T06:56:41;101264.66;;;3.78;100.00
76547;BME280;65390;53.014;8.886;2022-12-07T06:59:07;101232.72;;;3.53;100.00
76547;BME280;65390;53.014;8.886;2022-12-07T07:01:33;101257.25;;;3.59;100.00
76547;BME280;65390;53.014;8.886;2022-12-07T07:03:59;101216.53;;;3.32;100.00
76547;BME280;65390;53.014;8.886;2022-12-07T07:06:25;101250.91;;;3.65;100.00
76547;BME280;65390;53.014;8.886;2022-12-07T07:08:51;101259.72;;;3.66;100.00
76547;BME280;65390;53.014;8.886;2022-12-07T07:11:19;101247.66;;;3.55;100.00
76547;BME280;65390;53.014;8.886;2022-12-07T07:13:48;101242.97;;;3.34;100.00
76547;BME280;65390;53.014;8.886;2022-12-07T07:16:19;101272.69;;;3.45;100.00
76547;BME280;65390;53.014;8.886;2022-12-07T07:18:52;101227.03;;;3.04;100.00
76547;BME280;65390;53.014;8.886;2022-12-07T07:21:22;101223.97;;;3.20;100.00
76547;BME280;65390;53.014;8.886;2022-12-07T07:23:50;101245.97;;;3.22;100.00
76547;BME280;65390;53.014;8.886;2022-12-07T07:26:20;101251.53;;;3.13;100.00
76547;BME280;65390;53.014;8.886;2022-12-07T07:28:46;101243.41;;;3.19;100.00
76547;BME280;65390;53.014;8.886;2022-12-07T07:31:14;101274.59;;;3.40;100.00
76547;BME280;65390;53.014;8.886;2022-12-07T07:33:39;101267.66;;;3.36;100.00
76547;BME280;65390;53.014;8.886;2022-12-07T07:36:05;101251.03;;;3.31;100.00
76547;BME280;65390;53.014;8.886;2022-12-07T07:38:30;101242.78;;;3.11;100.00
76547;BME280;65390;53.014;8.886;2022-12-07T07:40:56;101259.88;;;3.30;100.00
76547;BME280;65390;53.014;8.886;2022-12-07T07:43:21;101264.03;;;3.39;100.00
76547;BME280;65390;53.014;8.886;2022-12-07T07:45:46;101214.44;;;3.14;100.00
76547;BME280;65390;53.014;8.886;2022-12-07T07:48:12;101244.81;;;3.32;100.00
76547;BME280;65390;53.014;8.886;2022-12-07T07:50:37;101242.81;;;3.09;100.00
76547;BME280;65390;53.014;8.886;2022-12-07T07:53:02;101241.38;;;2.97;100.00
76547;BME280;65390;53.014;8.886;2022-12-07T07:55:28;101231.47;;;3.06;100.00
76547;BME280;65390;53.014;8.886;2022-12-07T07:57:54;101254.84;;;3.21;100.00
76547;BME280;65390;53.014;8.886;2022-12-07T08:00:19;101235.63;;;3.14;100.00
76547;BME280;65390;53.014;8.886;2022-12-07T08:02:45;101241.69;;;3.18;100.00
76547;BME280;65390;53.014;8.886;2022-12-07T08:05:11;101265.13;;;3.31;100.00
76547;BME280;65390;53.014;8.886;2022-12-07T08:07:39;101274.69;;;3.37;100.00
76547;BME280;65390;53.014;8.886;2022-12-07T08:10:06;101231.22;;;3.13;100.00
76547;BME280;65390;53.014;8.886;2022-12-07T08:12:38;101278.75;;;3.49;100.00
76547;BME280;65390;53.014;8.886;2022-12-07T08:15:26;101233.06;;;3.11;100.00
76547;BME280;65390;53.014;8.886;2022-12-07T08:17:53;101247.72;;;2.92;100.00
76547;BME280;65390;53.014;8.886;2022-12-07T08:20:22;101280.53;;;3.17;100.00
76547;BME280;65390;53.014;8.886;2022-12-07T08:22:50;101283.38;;;3.42;100.00
76547;BME280;65390;53.014;8.886;2022-12-07T08:25:21;101238.16;;;3.17;100.00
76547;BME280;65390;53.014;8.886;2022-12-07T08:27:56;101245.88;;;3.26;100.00
76547;BME280;65390;53.014;8.886;2022-12-07T08:30:23;101251.31;;;3.20;100.00
76547;BME280;65390;53.014;8.886;2022-12-07T08:32:50;101261.72;;;3.28;100.00
76547;BME280;65390;53.014;8.886;2022-12-07T08:35:17;101251.13;;;3.28;100.00
76547;BME280;65390;53.014;8.886;2022-12-07T08:37:44;101273.69;;;3.41;100.00
76547;BME280;65390;53.014;8.886;2022-12-07T08:40:12;101258.53;;;3.46;100.00
76547;BME280;65390;53.014;8.886;2022-12-07T08:42:42;101247.56;;;3.29;100.00
76547;BME280;65390;53.014;8.886;2022-12-07T08:45:15;101284.09;;;3.47;100.00
76547;BME280;65390;53.014;8.886;2022-12-07T08:47:50;101247.38;;;3.35;100.00
76547;BME280;65390;53.014;8.886;2022-12-07T08:50:17;101298.00;;;3.55;100.00
76547;BME280;65390;53.014;8.886;2022-12-07T08:52:44;101259.59;;;3.39;100.00
76547;BME280;65390;53.014;8.886;2022-12-07T08:55:11;101296.81;;;3.66;100.00
76547;BME280;65390;53.014;8.886;2022-12-07T08:57:39;101251.31;;;3.51;100.00
76547;BME280;65390;53.014;8.886;2022-12-07T09:00:06;101259.44;;;3.45;100.00
76547;BME280;65390;53.014;8.886;2022-12-07T09:02:35;101263.41;;;3.30;100.00
76547;BME280;65390;53.014;8.886;2022-12-07T09:05:02;101262.41;;;3.34;100.00
76547;BME280;65390;53.014;8.886;2022-12-07T09:07:30;101277.81;;;3.51;100.00
76547;BME280;65390;53.014;8.886;2022-12-07T09:09:58;101299.94;;;3.80;100.00
76547;BME280;65390;53.014;8.886;2022-12-07T09:12:24;101266.97;;;3.59;100.00
76547;BME280;65390;53.014;8.886;2022-12-07T09:14:51;101275.66;;;3.64;100.00
76547;BME280;65390;53.014;8.886;2022-12-07T09:17:18;101262.41;;;3.64;100.00
76547;BME280;65390;53.014;8.886;2022-12-07T09:19:44;101261.56;;;3.63;100.00
76547;BME280;65390;53.014;8.886;2022-12-07T09:22:11;101279.69;;;3.77;100.00
76547;BME280;65390;53.014;8.886;2022-12-07T09:24:37;101261.41;;;3.68;100.00
76547;BME280;65390;53.014;8.886;2022-12-07T09:27:04;101272.06;;;3.67;100.00
76547;BME280;65390;53.014;8.886;2022-12-07T09:29:31;101257.88;;;3.68;100.00
76547;BME280;65390;53.014;8.886;2022-12-07T09:31:58;101246.97;;;3.78;100.00
76547;BME280;65390;53.014;8.886;2022-12-07T09:34:25;101241.53;;;3.83;100.00
76547;BME280;65390;53.014;8.886;2022-12-07T09:36:53;101247.88;;;3.77;100.00
76547;BME280;65390;53.014;8.886;2022-12-07T09:39:20;101276.22;;;4.03;100.00
76547;BME280;65390;53.014;8.886;2022-12-07T09:41:46;101243.91;;;3.90;100.00
76547;BME280;65390;53.014;8.886;2022-12-07T09:44:22;101296.06;;;4.19;100.00
76547;BME280;65390;53.014;8.886;2022-12-07T09:46:50;101263.47;;;4.16;100.00
76547;BME280;65390;53.014;8.886;2022-12-07T09:49:23;101290.69;;;4.49;100.00
76547;BME280;65390;53.014;8.886;2022-12-07T09:54:41;101263.09;;;4.27;100.00
76547;BME280;65390;53.014;8.886;2022-12-07T09:57:11;101222.81;;;4.15;100.00
76547;BME280;65390;53.014;8.886;2022-12-07T09:59:37;101250.59;;;4.30;100.00
76547;BME280;65390;53.014;8.886;2022-12-07T10:05:07;101236.44;;;4.31;100.00
76547;BME280;65390;53.014;8.886;2022-12-07T10:07:36;101244.53;;;4.27;100.00
76547;BME280;65390;53.014;8.886;2022-12-07T10:10:06;101263.31;;;4.20;100.00
76547;BME280;65390;53.014;8.886;2022-12-07T10:15:57;101241.25;;;4.18;100.00
76547;BME280;65390;53.014;8.886;2022-12-07T10:21:20;101268.28;;;4.31;100.00
76547;BME280;65390;53.014;8.886;2022-12-07T10:24:13;101226.22;;;4.19;100.00
76547;BME280;65390;53.014;8.886;2022-12-07T10:26:53;101240.59;;;4.38;100.00
76547;BME280;65390;53.014;8.886;2022-12-07T10:29:32;101272.44;;;4.65;100.00
76547;BME280;65390;53.014;8.886;2022-12-07T10:32:25;101261.00;;;4.63;100.00
76547;BME280;65390;53.014;8.886;2022-12-07T10:35:21;101260.94;;;4.64;100.00
76547;BME280;65390;53.014;8.886;2022-12-07T10:37:47;101221.09;;;4.39;100.00
76547;BME280;65390;53.014;8.886;2022-12-07T10:40:35;101259.53;;;4.54;100.00
76547;BME280;65390;53.014;8.886;2022-12-07T10:43:18;101250.84;;;4.75;100.00
76547;BME280;65390;53.014;8.886;2022-12-07T10:48:30;101244.19;;;4.89;100.00
76547;BME280;65390;53.014;8.886;2022-12-07T10:51:27;101253.16;;;4.84;100.00
76547;BME280;65390;53.014;8.886;2022-12-07T10:56:56;101246.78;;;4.90;100.00
76547;BME280;65390;53.014;8.886;2022-12-07T10:59:56;101202.53;;;4.64;100.00
76547;BME280;65390;53.014;8.886;2022-12-07T11:02:46;101219.66;;;4.55;100.00
76547;BME280;65390;53.014;8.886;2022-12-07T11:05:44;101236.00;;;4.70;100.00
76547;BME280;65390;53.014;8.886;2022-12-07T11:08:39;101237.97;;;4.63;100.00
76547;BME280;65390;53.014;8.886;2022-12-07T11:11:35;101237.09;;;4.63;100.00
76547;BME280;65390;53.014;8.886;2022-12-07T11:17:01;101237.38;;;4.80;100.00
76547;BME280;65390;53.014;8.886;2022-12-07T11:19:39;101226.72;;;4.81;100.00
76547;BME280;65390;53.014;8.886;2022-12-07T11:22:43;101228.78;;;4.98;100.00
76547;BME280;65390;53.014;8.886;2022-12-07T11:25:32;101182.81;;;4.96;100.00
76547;BME280;65390;53.014;8.886;2022-12-07T11:28:23;101187.84;;;5.27;100.00
76547;BME280;65390;53.014;8.886;2022-12-07T11:31:12;101227.00;;;5.69;100.00
76547;BME280;65390;53.014;8.886;2022-12-07T11:33:46;101232.75;;;5.58;100.00
76547;BME280;65390;53.014;8.886;2022-12-07T11:36:31;101215.56;;;5.67;100.00
76547;BME280;65390;53.014;8.886;2022-12-07T11:39:15;101188.09;;;5.44;100.00
76547;BME280;65390;53.014;8.886;2022-12-07T11:41:42;101191.59;;;5.45;100.00
76547;BME280;65390;53.014;8.886;2022-12-07T11:47:22;101207.44;;;5.48;100.00
76547;BME280;65390;53.014;8.886;2022-12-07T11:49:56;101200.63;;;5.41;100.00
76547;BME280;65390;53.014;8.886;2022-12-07T11:52:49;101173.66;;;5.28;100.00
76547;BME280;65390;53.014;8.886;2022-12-07T11:58:40;101192.00;;;5.58;100.00
76547;BME280;65390;53.014;8.886;2022-12-07T12:03:47;101181.00;;;5.67;100.00
76547;BME280;65390;53.014;8.886;2022-12-07T12:06:15;101156.81;;;5.51;100.00
76547;BME280;65390;53.014;8.886;2022-12-07T12:22:16;101155.72;;;6.00;100.00
76547;BME280;65390;53.014;8.886;2022-12-07T12:24:44;101131.78;;;6.00;100.00
76547;BME280;65390;53.014;8.886;2022-12-07T12:27:30;101167.41;;;6.18;100.00
76547;BME280;65390;53.014;8.886;2022-12-07T12:33:25;101155.38;;;6.30;100.00
76547;BME280;65390;53.014;8.886;2022-12-07T12:36:18;101149.47;;;6.01;100.00
76547;BME280;65390;53.014;8.886;2022-12-07T12:39:08;101126.53;;;5.99;100.00
76547;BME280;65390;53.014;8.886;2022-12-07T12:47:03;101105.78;;;5.85;100.00
76547;BME280;65390;53.014;8.886;2022-12-07T12:55:00;101123.59;;;6.05;100.00
76547;BME280;65390;53.014;8.886;2022-12-07T12:57:30;101109.84;;;5.95;100.00
76547;BME280;65390;53.014;8.886;2022-12-07T13:00:00;101092.97;;;5.73;100.00
76547;BME280;65390;53.014;8.886;2022-12-07T13:02:35;101118.28;;;5.83;100.00
76547;BME280;65390;53.014;8.886;2022-12-07T13:10:37;101119.94;;;4.48;100.00
76547;BME280;65390;53.014;8.886;2022-12-07T13:26:57;101143.94;;;4.20;100.00
76547;BME280;65390;53.014;8.886;2022-12-07T13:29:35;101143.47;;;4.34;100.00
76547;BME280;65390;53.014;8.886;2022-12-07T13:35:47;101091.53;;;4.52;100.00
76547;BME280;65390;53.014;8.886;2022-12-07T13:38:56;101139.22;;;5.02;100.00
76547;BME280;65390;53.014;8.886;2022-12-07T13:41:49;101092.81;;;4.89;100.00
76547;BME280;65390;53.014;8.886;2022-12-07T13:44:46;101128.94;;;5.16;100.00
76547;BME280;65390;53.014;8.886;2022-12-07T13:47:37;101113.94;;;4.92;100.00
76547;BME280;65390;53.014;8.886;2022-12-07T13:50:35;101122.22;;;4.82;100.00
76547;BME280;65390;53.014;8.886;2022-12-07T13:53:07;101139.34;;;4.99;100.00
76547;BME280;65390;53.014;8.886;2022-12-07T13:58:46;101141.94;;;5.00;100.00
76547;BME280;65390;53.014;8.886;2022-12-07T14:01:21;101137.72;;;4.95;100.00
76547;BME280;65390;53.014;8.886;2022-12-07T14:04:16;101135.06;;;4.95;100.00
76547;BME280;65390;53.014;8.886;2022-12-07T14:06:57;101079.56;;;4.64;100.00
76547;BME280;65390;53.014;8.886;2022-12-07T14:09:38;101139.25;;;4.77;100.00
76547;BME280;65390;53.014;8.886;2022-12-07T14:12:05;101125.00;;;4.56;100.00
76547;BME280;65390;53.014;8.886;2022-12-07T14:14:37;101115.94;;;4.37;100.00
76547;BME280;65390;53.014;8.886;2022-12-07T14:17:48;101088.56;;;4.36;100.00
76547;BME280;65390;53.014;8.886;2022-12-07T14:20:40;101120.44;;;4.60;100.00
76547;BME280;65390;53.014;8.886;2022-12-07T14:23:26;101086.16;;;4.29;100.00
76547;BME280;65390;53.014;8.886;2022-12-07T14:26:03;101110.31;;;4.46;100.00
76547;BME280;65390;53.014;8.886;2022-12-07T14:28:38;101137.22;;;4.60;100.00
76547;BME280;65390;53.014;8.886;2022-12-07T14:31:17;101126.53;;;4.62;100.00
76547;BME280;65390;53.014;8.886;2022-12-07T14:33:45;101141.59;;;4.61;100.00
76547;BME280;65390;53.014;8.886;2022-12-07T14:36:14;101087.94;;;4.28;100.00
76547;BME280;65390;53.014;8.886;2022-12-07T14:38:48;101056.81;;;4.08;100.00
76547;BME280;65390;53.014;8.886;2022-12-07T14:41:20;101065.25;;;3.94;100.00
76547;BME280;65390;53.014;8.886;2022-12-07T14:44:12;101097.34;;;4.12;100.00
76547;BME280;65390;53.014;8.886;2022-12-07T14:46:42;101049.97;;;3.76;100.00
76547;BME280;65390;53.014;8.886;2022-12-07T14:49:15;101117.41;;;4.20;100.00
76547;BME280;65390;53.014;8.886;2022-12-07T14:51:42;101123.09;;;4.35;100.00
76547;BME280;65390;53.014;8.886;2022-12-07T14:54:20;101078.75;;;4.13;100.00
76547;BME280;65390;53.014;8.886;2022-12-07T14:56:46;101105.50;;;4.32;100.00
76547;BME280;65390;53.014;8.886;2022-12-07T14:59:17;101128.75;;;4.50;100.00